sensor_id;sensor_type;location;lat;lon;timestamp;P1;durP1;ratioP1;P2;durP2;ratioP2
22234;SDS011;11286;45.596;5.284;2022-12-05T00:01:15;34.78;;;24.08;;
22234;SDS011;11286;45.596;5.284;2022-12-05T00:03:45;33.92;;;24.10;;
22234;SDS011;11286;45.596;5.284;2022-12-05T00:06:12;30.27;;;23.13;;
22234;SDS011;11286;45.596;5.284;2022-12-05T00:08:38;33.55;;;23.60;;
22234;SDS011;11286;45.596;5.284;2022-12-05T00:11:03;32.70;;;24.67;;
22234;SDS011;11286;45.596;5.284;2022-12-05T00:13:36;32.08;;;23.23;;
22234;SDS011;11286;45.596;5.284;2022-12-05T00:16:05;33.15;;;24.17;;
22234;SDS011;11286;45.596;5.284;2022-12-05T00:18:32;39.80;;;25.38;;
22234;SDS011;11286;45.596;5.284;2022-12-05T00:20:58;33.20;;;23.98;;
22234;SDS011;11286;45.596;5.284;2022-12-05T00:23:23;28.75;;;22.23;;
22234;SDS011;11286;45.596;5.284;2022-12-05T00:25:49;32.45;;;23.90;;
22234;SDS011;11286;45.596;5.284;2022-12-05T00:28:14;33.55;;;24.83;;
22234;SDS011;11286;45.596;5.284;2022-12-05T00:30:40;34.17;;;25.70;;
22234;SDS011;11286;45.596;5.284;2022-12-05T00:33:05;40.00;;;27.00;;
22234;SDS011;11286;45.596;5.284;2022-12-05T00:35:32;33.80;;;26.33;;
22234;SDS011;11286;45.596;5.284;2022-12-05T00:37:58;29.27;;;23.45;;
22234;SDS011;11286;45.596;5.284;2022-12-05T00:40:23;32.40;;;25.45;;
22234;SDS011;11286;45.596;5.284;2022-12-05T00:42:49;34.55;;;26.05;;
22234;SDS011;11286;45.596;5.284;2022-12-05T00:45:15;31.80;;;25.10;;
22234;SDS011;11286;45.596;5.284;2022-12-05T00:47:40;33.03;;;24.90;;
22234;SDS011;11286;45.596;5.284;2022-12-05T00:50:06;37.45;;;25.30;;
22234;SDS011;11286;45.596;5.284;2022-12-05T00:52:32;29.48;;;23.70;;
22234;SDS011;11286;45.596;5.284;2022-12-05T00:54:58;37.65;;;27.63;;
22234;SDS011;11286;45.596;5.284;2022-12-05T00:57:23;34.80;;;26.80;;
22234;SDS011;11286;45.596;5.284;2022-12-05T00:59:49;38.00;;;26.00;;
22234;SDS011;11286;45.596;5.284;2022-12-05T01:02:14;31.70;;;24.58;;
22234;SDS011;11286;45.596;5.284;2022-12-05T01:04:40;31.25;;;23.48;;
22234;SDS011;11286;45.596;5.284;2022-12-05T01:07:06;33.85;;;23.73;;
22234;SDS011;11286;45.596;5.284;2022-12-05T01:09:31;29.92;;;22.65;;
22234;SDS011;11286;45.596;5.284;2022-12-05T01:11:57;32.75;;;23.15;;
22234;SDS011;11286;45.596;5.284;2022-12-05T01:14:23;35.83;;;24.83;;
22234;SDS011;11286;45.596;5.284;2022-12-05T01:16:50;35.00;;;25.05;;
22234;SDS011;11286;45.596;5.284;2022-12-05T01:19:22;31.48;;;23.20;;
22234;SDS011;11286;45.596;5.284;2022-12-05T01:21:49;33.50;;;23.55;;
22234;SDS011;11286;45.596;5.284;2022-12-05T01:24:16;35.45;;;25.38;;
22234;SDS011;11286;45.596;5.284;2022-12-05T01:26:43;35.45;;;25.55;;
22234;SDS011;11286;45.596;5.284;2022-12-05T01:29:11;30.20;;;23.60;;
22234;SDS011;11286;45.596;5.284;2022-12-05T01:31:39;35.17;;;24.98;;
22234;SDS011;11286;45.596;5.284;2022-12-05T01:34:06;34.65;;;24.13;;
22234;SDS011;11286;45.596;5.284;2022-12-05T01:36:34;33.50;;;23.95;;
22234;SDS011;11286;45.596;5.284;2022-12-05T01:39:00;34.22;;;24.85;;
22234;SDS011;11286;45.596;5.284;2022-12-05T01:41:27;32.55;;;24.05;;
22234;SDS011;11286;45.596;5.284;2022-12-05T01:43:56;37.45;;;24.58;;
22234;SDS011;11286;45.596;5.284;2022-12-05T01:46:25;39.50;;;26.92;;
22234;SDS011;11286;45.596;5.284;2022-12-05T01:48:52;37.80;;;25.63;;
22234;SDS011;11286;45.596;5.284;2022-12-05T01:51:42;37.65;;;27.27;;
22234;SDS011;11286;45.596;5.284;2022-12-05T01:54:11;38.88;;;26.65;;
22234;SDS011;11286;45.596;5.284;2022-12-05T01:56:39;39.70;;;26.40;;
22234;SDS011;11286;45.596;5.284;2022-12-05T01:59:08;38.63;;;26.92;;
22234;SDS011;11286;45.596;5.284;2022-12-05T02:01:35;37.70;;;23.88;;
22234;SDS011;11286;45.596;5.284;2022-12-05T02:04:02;39.97;;;25.55;;
22234;SDS011;11286;45.596;5.284;2022-12-05T02:06:28;34.75;;;23.52;;
22234;SDS011;11286;45.596;5.284;2022-12-05T02:08:55;38.33;;;25.17;;
22234;SDS011;11286;45.596;5.284;2022-12-05T02:11:22;38.17;;;25.48;;
22234;SDS011;11286;45.596;5.284;2022-12-05T02:16:31;43.85;;;27.63;;
22234;SDS011;11286;45.596;5.284;2022-12-05T02:30:43;50.70;;;25.17;;
22234;SDS011;11286;45.596;5.284;2022-12-05T02:38:38;79.25;;;25.02;;
22234;SDS011;11286;45.596;5.284;2022-12-05T02:42:08;80.60;;;24.73;;
22234;SDS011;11286;45.596;5.284;2022-12-05T02:44:34;63.13;;;22.25;;
22234;SDS011;11286;45.596;5.284;2022-12-05T02:47:06;177.18;;;25.27;;
22234;SDS011;11286;45.596;5.284;2022-12-05T02:49:35;170.85;;;24.60;;
22234;SDS011;11286;45.596;5.284;2022-12-05T02:52:02;181.82;;;24.88;;
22234;SDS011;11286;45.596;5.284;2022-12-05T02:54:35;155.38;;;25.00;;
22234;SDS011;11286;45.596;5.284;2022-12-05T02:57:04;160.50;;;25.05;;
22234;SDS011;11286;45.596;5.284;2022-12-05T02:59:30;139.07;;;24.92;;
22234;SDS011;11286;45.596;5.284;2022-12-05T03:01:56;204.45;;;27.58;;
22234;SDS011;11286;45.596;5.284;2022-12-05T03:04:23;161.45;;;24.65;;
22234;SDS011;11286;45.596;5.284;2022-12-05T03:06:51;240.38;;;26.45;;
22234;SDS011;11286;45.596;5.284;2022-12-05T03:12:27;184.27;;;25.50;;
22234;SDS011;11286;45.596;5.284;2022-12-05T03:15:17;188.65;;;23.77;;
22234;SDS011;11286;45.596;5.284;2022-12-05T03:17:49;177.50;;;23.35;;
22234;SDS011;11286;45.596;5.284;2022-12-05T03:20:47;169.73;;;23.73;;
22234;SDS011;11286;45.596;5.284;2022-12-05T03:25:59;106.13;;;22.80;;
22234;SDS011;11286;45.596;5.284;2022-12-05T03:29:10;94.75;;;22.38;;
22234;SDS011;11286;45.596;5.284;2022-12-05T03:32:10;122.78;;;24.45;;
22234;SDS011;11286;45.596;5.284;2022-12-05T03:37:19;70.85;;;22.42;;
22234;SDS011;11286;45.596;5.284;2022-12-05T03:39:53;71.15;;;22.85;;
22234;SDS011;11286;45.596;5.284;2022-12-05T03:42:49;45.85;;;22.42;;
22234;SDS011;11286;45.596;5.284;2022-12-05T03:45:26;45.50;;;22.80;;
22234;SDS011;11286;45.596;5.284;2022-12-05T03:48:05;58.28;;;22.80;;
22234;SDS011;11286;45.596;5.284;2022-12-05T03:50:37;36.83;;;21.13;;
22234;SDS011;11286;45.596;5.284;2022-12-05T03:53:15;46.25;;;23.60;;
22234;SDS011;11286;45.596;5.284;2022-12-05T03:55:48;40.30;;;22.77;;
22234;SDS011;11286;45.596;5.284;2022-12-05T03:58:21;48.55;;;23.38;;
22234;SDS011;11286;45.596;5.284;2022-12-05T04:00:52;39.15;;;22.50;;
22234;SDS011;11286;45.596;5.284;2022-12-05T04:03:21;55.03;;;24.40;;
22234;SDS011;11286;45.596;5.284;2022-12-05T04:09:20;32.25;;;20.73;;
22234;SDS011;11286;45.596;5.284;2022-12-05T04:11:55;36.65;;;21.05;;
22234;SDS011;11286;45.596;5.284;2022-12-05T04:14:32;47.92;;;23.60;;
22234;SDS011;11286;45.596;5.284;2022-12-05T04:17:05;42.03;;;23.88;;
22234;SDS011;11286;45.596;5.284;2022-12-05T04:22:35;34.45;;;21.38;;
22234;SDS011;11286;45.596;5.284;2022-12-05T04:25:02;34.67;;;21.42;;
22234;SDS011;11286;45.596;5.284;2022-12-05T04:27:56;34.22;;;21.85;;
22234;SDS011;11286;45.596;5.284;2022-12-05T04:30:32;36.15;;;22.23;;
22234;SDS011;11286;45.596;5.284;2022-12-05T04:33:32;32.83;;;20.75;;
22234;SDS011;11286;45.596;5.284;2022-12-05T04:36:19;32.83;;;20.05;;
22234;SDS011;11286;45.596;5.284;2022-12-05T04:41:36;35.25;;;22.58;;
22234;SDS011;11286;45.596;5.284;2022-12-05T04:44:09;33.38;;;20.98;;
22234;SDS011;11286;45.596;5.284;2022-12-05T04:46:37;36.40;;;21.88;;
22234;SDS011;11286;45.596;5.284;2022-12-05T04:49:06;36.40;;;21.88;;
22234;SDS011;11286;45.596;5.284;2022-12-05T04:51:34;29.92;;;20.50;;
22234;SDS011;11286;45.596;5.284;2022-12-05T04:54:36;36.90;;;23.15;;
22234;SDS011;11286;45.596;5.284;2022-12-05T05:00:19;32.85;;;20.48;;
22234;SDS011;11286;45.596;5.284;2022-12-05T05:02:53;27.95;;;18.60;;
22234;SDS011;11286;45.596;5.284;2022-12-05T05:05:27;28.70;;;18.63;;
22234;SDS011;11286;45.596;5.284;2022-12-05T05:07:55;28.08;;;18.85;;
22234;SDS011;11286;45.596;5.284;2022-12-05T05:13:33;27.27;;;18.73;;
22234;SDS011;11286;45.596;5.284;2022-12-05T05:15:59;26.92;;;18.30;;
22234;SDS011;11286;45.596;5.284;2022-12-05T05:18:24;26.27;;;18.35;;
22234;SDS011;11286;45.596;5.284;2022-12-05T05:20:50;26.10;;;18.27;;
22234;SDS011;11286;45.596;5.284;2022-12-05T05:23:15;24.67;;;17.67;;
22234;SDS011;11286;45.596;5.284;2022-12-05T05:25:41;27.48;;;18.10;;
22234;SDS011;11286;45.596;5.284;2022-12-05T05:28:07;46.33;;;29.48;;
22234;SDS011;11286;45.596;5.284;2022-12-05T05:30:32;28.05;;;20.15;;
22234;SDS011;11286;45.596;5.284;2022-12-05T05:32:58;27.60;;;19.73;;
22234;SDS011;11286;45.596;5.284;2022-12-05T05:35:24;26.35;;;18.35;;
22234;SDS011;11286;45.596;5.284;2022-12-05T05:37:50;25.25;;;18.73;;
22234;SDS011;11286;45.596;5.284;2022-12-05T05:40:16;28.05;;;18.50;;
22234;SDS011;11286;45.596;5.284;2022-12-05T05:42:45;26.13;;;18.23;;
22234;SDS011;11286;45.596;5.284;2022-12-05T05:45:13;26.88;;;18.70;;
22234;SDS011;11286;45.596;5.284;2022-12-05T05:47:40;27.67;;;19.70;;
22234;SDS011;11286;45.596;5.284;2022-12-05T05:50:07;33.70;;;23.70;;
22234;SDS011;11286;45.596;5.284;2022-12-05T05:52:33;39.60;;;27.05;;
22234;SDS011;11286;45.596;5.284;2022-12-05T05:55:00;45.45;;;31.17;;
22234;SDS011;11286;45.596;5.284;2022-12-05T05:57:27;34.67;;;23.98;;
22234;SDS011;11286;45.596;5.284;2022-12-05T05:59:53;38.53;;;23.10;;
22234;SDS011;11286;45.596;5.284;2022-12-05T06:02:18;31.80;;;21.60;;
22234;SDS011;11286;45.596;5.284;2022-12-05T06:04:44;36.13;;;22.05;;
22234;SDS011;11286;45.596;5.284;2022-12-05T06:07:09;33.15;;;21.92;;
22234;SDS011;11286;45.596;5.284;2022-12-05T06:09:35;37.15;;;22.33;;
22234;SDS011;11286;45.596;5.284;2022-12-05T06:12:01;32.30;;;22.75;;
22234;SDS011;11286;45.596;5.284;2022-12-05T06:14:26;32.75;;;20.83;;
22234;SDS011;11286;45.596;5.284;2022-12-05T06:16:52;32.08;;;20.88;;
22234;SDS011;11286;45.596;5.284;2022-12-05T06:19:18;30.48;;;21.27;;
22234;SDS011;11286;45.596;5.284;2022-12-05T06:21:43;31.60;;;21.23;;
22234;SDS011;11286;45.596;5.284;2022-12-05T06:24:09;30.83;;;20.60;;
22234;SDS011;11286;45.596;5.284;2022-12-05T06:26:34;26.20;;;19.00;;
22234;SDS011;11286;45.596;5.284;2022-12-05T06:29:00;27.15;;;19.70;;
22234;SDS011;11286;45.596;5.284;2022-12-05T06:31:26;31.02;;;20.63;;
22234;SDS011;11286;45.596;5.284;2022-12-05T06:33:55;29.85;;;20.27;;
22234;SDS011;11286;45.596;5.284;2022-12-05T06:36:23;31.52;;;20.80;;
22234;SDS011;11286;45.596;5.284;2022-12-05T06:38:48;32.60;;;20.35;;
22234;SDS011;11286;45.596;5.284;2022-12-05T06:41:15;33.15;;;21.85;;
22234;SDS011;11286;45.596;5.284;2022-12-05T06:43:43;31.58;;;20.38;;
22234;SDS011;11286;45.596;5.284;2022-12-05T06:46:10;28.58;;;19.55;;
22234;SDS011;11286;45.596;5.284;2022-12-05T06:48:36;29.63;;;20.30;;
22234;SDS011;11286;45.596;5.284;2022-12-05T06:51:02;25.88;;;18.45;;
22234;SDS011;11286;45.596;5.284;2022-12-05T06:53:28;26.05;;;19.00;;
22234;SDS011;11286;45.596;5.284;2022-12-05T06:55:55;29.90;;;21.30;;
22234;SDS011;11286;45.596;5.284;2022-12-05T06:58:25;28.02;;;20.13;;
22234;SDS011;11286;45.596;5.284;2022-12-05T07:00:52;31.08;;;21.20;;
22234;SDS011;11286;45.596;5.284;2022-12-05T07:03:36;31.55;;;21.73;;
22234;SDS011;11286;45.596;5.284;2022-12-05T07:06:03;31.15;;;22.15;;
22234;SDS011;11286;45.596;5.284;2022-12-05T07:08:30;27.35;;;19.42;;
22234;SDS011;11286;45.596;5.284;2022-12-05T07:10:56;32.97;;;20.88;;
22234;SDS011;11286;45.596;5.284;2022-12-05T07:13:22;29.77;;;19.85;;
22234;SDS011;11286;45.596;5.284;2022-12-05T07:15:48;31.33;;;22.08;;
22234;SDS011;11286;45.596;5.284;2022-12-05T07:18:14;32.03;;;21.15;;
22234;SDS011;11286;45.596;5.284;2022-12-05T07:20:41;29.10;;;21.20;;
22234;SDS011;11286;45.596;5.284;2022-12-05T07:23:08;32.88;;;22.13;;
22234;SDS011;11286;45.596;5.284;2022-12-05T07:25:37;31.30;;;22.08;;
22234;SDS011;11286;45.596;5.284;2022-12-05T07:28:04;31.90;;;21.75;;
22234;SDS011;11286;45.596;5.284;2022-12-05T07:30:30;53.42;;;30.20;;
22234;SDS011;11286;45.596;5.284;2022-12-05T07:32:55;72.53;;;41.75;;
22234;SDS011;11286;45.596;5.284;2022-12-05T07:35:21;158.82;;;84.90;;
22234;SDS011;11286;45.596;5.284;2022-12-05T07:37:47;79.18;;;47.40;;
22234;SDS011;11286;45.596;5.284;2022-12-05T07:40:12;114.63;;;67.47;;
22234;SDS011;11286;45.596;5.284;2022-12-05T07:42:38;116.68;;;71.85;;
22234;SDS011;11286;45.596;5.284;2022-12-05T07:45:04;91.25;;;56.65;;
22234;SDS011;11286;45.596;5.284;2022-12-05T07:47:30;59.28;;;38.33;;
22234;SDS011;11286;45.596;5.284;2022-12-05T07:49:55;54.10;;;32.80;;
22234;SDS011;11286;45.596;5.284;2022-12-05T07:52:21;48.22;;;29.90;;
22234;SDS011;11286;45.596;5.284;2022-12-05T07:54:47;60.28;;;36.30;;
22234;SDS011;11286;45.596;5.284;2022-12-05T07:57:12;47.90;;;29.90;;
22234;SDS011;11286;45.596;5.284;2022-12-05T07:59:38;48.47;;;30.00;;
22234;SDS011;11286;45.596;5.284;2022-12-05T08:02:04;65.50;;;40.92;;
22234;SDS011;11286;45.596;5.284;2022-12-05T08:04:30;56.95;;;35.08;;
22234;SDS011;11286;45.596;5.284;2022-12-05T08:06:55;58.45;;;34.63;;
22234;SDS011;11286;45.596;5.284;2022-12-05T08:09:21;54.30;;;34.50;;
22234;SDS011;11286;45.596;5.284;2022-12-05T08:11:46;55.28;;;35.78;;
22234;SDS011;11286;45.596;5.284;2022-12-05T08:14:12;50.15;;;31.95;;
22234;SDS011;11286;45.596;5.284;2022-12-05T08:16:38;48.08;;;31.35;;
22234;SDS011;11286;45.596;5.284;2022-12-05T08:19:04;48.55;;;31.10;;
22234;SDS011;11286;45.596;5.284;2022-12-05T08:21:32;42.45;;;28.23;;
22234;SDS011;11286;45.596;5.284;2022-12-05T08:23:58;39.63;;;25.52;;
22234;SDS011;11286;45.596;5.284;2022-12-05T08:26:25;37.63;;;25.42;;
22234;SDS011;11286;45.596;5.284;2022-12-05T08:28:53;35.85;;;25.25;;
22234;SDS011;11286;45.596;5.284;2022-12-05T08:31:20;38.92;;;24.75;;
22234;SDS011;11286;45.596;5.284;2022-12-05T08:33:48;36.50;;;24.83;;
22234;SDS011;11286;45.596;5.284;2022-12-05T08:36:15;36.50;;;24.73;;
22234;SDS011;11286;45.596;5.284;2022-12-05T08:38:41;34.40;;;24.42;;
22234;SDS011;11286;45.596;5.284;2022-12-05T08:41:09;44.35;;;32.40;;
22234;SDS011;11286;45.596;5.284;2022-12-05T08:43:37;114.47;;;84.95;;
22234;SDS011;11286;45.596;5.284;2022-12-05T08:46:03;35.17;;;24.60;;
22234;SDS011;11286;45.596;5.284;2022-12-05T08:48:30;33.15;;;22.92;;
22234;SDS011;11286;45.596;5.284;2022-12-05T08:50:56;34.20;;;24.02;;
22234;SDS011;11286;45.596;5.284;2022-12-05T08:53:22;35.05;;;23.90;;
22234;SDS011;11286;45.596;5.284;2022-12-05T08:55:48;36.67;;;24.45;;
22234;SDS011;11286;45.596;5.284;2022-12-05T08:58:14;39.55;;;24.40;;
22234;SDS011;11286;45.596;5.284;2022-12-05T09:00:40;44.78;;;24.45;;
22234;SDS011;11286;45.596;5.284;2022-12-05T09:03:05;42.78;;;25.42;;
22234;SDS011;11286;45.596;5.284;2022-12-05T09:05:31;35.28;;;22.30;;
22234;SDS011;11286;45.596;5.284;2022-12-05T09:07:57;36.35;;;21.98;;
22234;SDS011;11286;45.596;5.284;2022-12-05T09:10:23;30.42;;;20.70;;
22234;SDS011;11286;45.596;5.284;2022-12-05T09:12:50;29.38;;;20.38;;
22234;SDS011;11286;45.596;5.284;2022-12-05T09:15:16;35.00;;;21.98;;
22234;SDS011;11286;45.596;5.284;2022-12-05T09:17:42;29.38;;;20.25;;
22234;SDS011;11286;45.596;5.284;2022-12-05T09:20:08;30.88;;;20.52;;
22234;SDS011;11286;45.596;5.284;2022-12-05T09:22:35;31.88;;;20.88;;
22234;SDS011;11286;45.596;5.284;2022-12-05T09:25:01;38.13;;;27.95;;
22234;SDS011;11286;45.596;5.284;2022-12-05T09:27:28;29.58;;;19.27;;
22234;SDS011;11286;45.596;5.284;2022-12-05T09:29:54;26.88;;;18.42;;
22234;SDS011;11286;45.596;5.284;2022-12-05T09:32:19;27.05;;;18.73;;
22234;SDS011;11286;45.596;5.284;2022-12-05T09:34:45;25.48;;;18.27;;
22234;SDS011;11286;45.596;5.284;2022-12-05T09:37:10;34.58;;;20.50;;
22234;SDS011;11286;45.596;5.284;2022-12-05T09:39:36;29.10;;;18.75;;
22234;SDS011;11286;45.596;5.284;2022-12-05T09:42:05;32.58;;;19.08;;
22234;SDS011;11286;45.596;5.284;2022-12-05T09:49:56;30.27;;;18.83;;
22234;SDS011;11286;45.596;5.284;2022-12-05T09:52:49;27.90;;;18.17;;
22234;SDS011;11286;45.596;5.284;2022-12-05T09:55:48;27.60;;;18.85;;
22234;SDS011;11286;45.596;5.284;2022-12-05T10:09:38;26.30;;;18.25;;
22234;SDS011;11286;45.596;5.284;2022-12-05T10:17:44;23.48;;;16.02;;
22234;SDS011;11286;45.596;5.284;2022-12-05T10:20:21;19.45;;;14.45;;
22234;SDS011;11286;45.596;5.284;2022-12-05T10:22:59;19.00;;;13.60;;
22234;SDS011;11286;45.596;5.284;2022-12-05T10:25:36;17.25;;;14.20;;
22234;SDS011;11286;45.596;5.284;2022-12-05T10:28:05;17.80;;;13.73;;
22234;SDS011;11286;45.596;5.284;2022-12-05T10:30:39;16.67;;;13.52;;
22234;SDS011;11286;45.596;5.284;2022-12-05T10:33:17;12.55;;;10.75;;
22234;SDS011;11286;45.596;5.284;2022-12-05T10:35:46;16.63;;;13.43;;
22234;SDS011;11286;45.596;5.284;2022-12-05T10:38:27;15.63;;;12.55;;
22234;SDS011;11286;45.596;5.284;2022-12-05T10:40:56;18.00;;;14.35;;
22234;SDS011;11286;45.596;5.284;2022-12-05T10:43:28;18.88;;;13.88;;
22234;SDS011;11286;45.596;5.284;2022-12-05T10:45:56;16.83;;;13.88;;
22234;SDS011;11286;45.596;5.284;2022-12-05T10:48:23;19.20;;;15.23;;
22234;SDS011;11286;45.596;5.284;2022-12-05T10:50:53;19.52;;;14.82;;
22234;SDS011;11286;45.596;5.284;2022-12-05T10:53:24;15.70;;;12.85;;
22234;SDS011;11286;45.596;5.284;2022-12-05T10:55:52;15.13;;;13.23;;
22234;SDS011;11286;45.596;5.284;2022-12-05T10:58:19;16.85;;;13.57;;
22234;SDS011;11286;45.596;5.284;2022-12-05T11:00:50;15.98;;;13.32;;
22234;SDS011;11286;45.596;5.284;2022-12-05T11:06:46;16.05;;;13.20;;
22234;SDS011;11286;45.596;5.284;2022-12-05T11:08:53;15.18;;;13.27;;
22234;SDS011;11286;45.596;5.284;2022-12-05T11:11:38;15.18;;;12.27;;
22234;SDS011;11286;45.596;5.284;2022-12-05T11:14:25;15.70;;;13.20;;
22234;SDS011;11286;45.596;5.284;2022-12-05T11:16:55;15.23;;;12.55;;
22234;SDS011;11286;45.596;5.284;2022-12-05T11:19:33;15.80;;;13.95;;
22234;SDS011;11286;45.596;5.284;2022-12-05T11:22:00;16.85;;;13.55;;
22234;SDS011;11286;45.596;5.284;2022-12-05T11:26:55;16.60;;;12.52;;
22234;SDS011;11286;45.596;5.284;2022-12-05T11:29:35;13.85;;;12.32;;
22234;SDS011;11286;45.596;5.284;2022-12-05T11:32:03;15.10;;;12.20;;
22234;SDS011;11286;45.596;5.284;2022-12-05T11:34:39;14.65;;;12.82;;
22234;SDS011;11286;45.596;5.284;2022-12-05T11:37:10;14.40;;;12.77;;
22234;SDS011;11286;45.596;5.284;2022-12-05T11:39:42;14.98;;;13.18;;
22234;SDS011;11286;45.596;5.284;2022-12-05T11:47:37;14.65;;;13.23;;
22234;SDS011;11286;45.596;5.284;2022-12-05T11:52:53;16.38;;;13.73;;
22234;SDS011;11286;45.596;5.284;2022-12-05T12:08:52;14.77;;;13.38;;
22234;SDS011;11286;45.596;5.284;2022-12-05T12:11:42;14.40;;;13.00;;
22234;SDS011;11286;45.596;5.284;2022-12-05T12:14:25;14.73;;;13.25;;
22234;SDS011;11286;45.596;5.284;2022-12-05T12:17:20;13.77;;;12.48;;
22234;SDS011;11286;45.596;5.284;2022-12-05T12:22:24;14.10;;;12.57;;
22234;SDS011;11286;45.596;5.284;2022-12-05T12:25:15;14.32;;;12.82;;
22234;SDS011;11286;45.596;5.284;2022-12-05T12:39:00;14.13;;;12.73;;
22234;SDS011;11286;45.596;5.284;2022-12-05T12:50:13;23.80;;;13.23;;
22234;SDS011;11286;45.596;5.284;2022-12-05T13:03:53;12.30;;;10.35;;
22234;SDS011;11286;45.596;5.284;2022-12-05T13:08:59;11.65;;;10.45;;
22234;SDS011;11286;45.596;5.284;2022-12-05T13:11:29;11.95;;;10.48;;
22234;SDS011;11286;45.596;5.284;2022-12-05T13:14:01;10.07;;;9.18;;
22234;SDS011;11286;45.596;5.284;2022-12-05T13:16:34;17.85;;;10.13;;
22234;SDS011;11286;45.596;5.284;2022-12-05T13:19:04;12.40;;;9.40;;
22234;SDS011;11286;45.596;5.284;2022-12-05T13:21:34;10.07;;;8.98;;
22234;SDS011;11286;45.596;5.284;2022-12-05T13:23:59;11.35;;;10.27;;
22234;SDS011;11286;45.596;5.284;2022-12-05T13:26:27;9.95;;;9.02;;
22234;SDS011;11286;45.596;5.284;2022-12-05T13:28:56;11.27;;;9.55;;
22234;SDS011;11286;45.596;5.284;2022-12-05T13:31:37;10.45;;;8.50;;
22234;SDS011;11286;45.596;5.284;2022-12-05T13:34:05;10.50;;;8.50;;
22234;SDS011;11286;45.596;5.284;2022-12-05T13:36:51;7.32;;;6.63;;
22234;SDS011;11286;45.596;5.284;2022-12-05T13:39:36;8.25;;;7.50;;
22234;SDS011;11286;45.596;5.284;2022-12-05T13:42:28;27.17;;;9.77;;
22234;SDS011;11286;45.596;5.284;2022-12-05T13:44:57;9.52;;;7.82;;
22234;SDS011;11286;45.596;5.284;2022-12-05T13:53:15;12.05;;;8.07;;
22234;SDS011;11286;45.596;5.284;2022-12-05T14:00:47;7.50;;;6.80;;
22234;SDS011;11286;45.596;5.284;2022-12-05T14:05:49;6.75;;;6.05;;
22234;SDS011;11286;45.596;5.284;2022-12-05T14:16:35;7.53;;;6.80;;
22234;SDS011;11286;45.596;5.284;2022-12-05T14:18:57;8.48;;;7.68;;
22234;SDS011;11286;45.596;5.284;2022-12-05T14:32:37;9.60;;;8.60;;
22234;SDS011;11286;45.596;5.284;2022-12-05T14:35:27;11.07;;;9.98;;
22234;SDS011;11286;45.596;5.284;2022-12-05T14:38:17;11.13;;;10.02;;
22234;SDS011;11286;45.596;5.284;2022-12-05T14:40:53;13.82;;;10.60;;
22234;SDS011;11286;45.596;5.284;2022-12-05T14:43:24;13.38;;;9.75;;
22234;SDS011;11286;45.596;5.284;2022-12-05T14:45:57;10.63;;;9.40;;
22234;SDS011;11286;45.596;5.284;2022-12-05T14:48:35;12.85;;;10.90;;
22234;SDS011;11286;45.596;5.284;2022-12-05T14:54:19;18.27;;;16.48;;
22234;SDS011;11286;45.596;5.284;2022-12-05T14:56:59;12.32;;;11.02;;
22234;SDS011;11286;45.596;5.284;2022-12-05T14:59:39;10.93;;;9.30;;
22234;SDS011;11286;45.596;5.284;2022-12-05T15:02:32;13.73;;;10.43;;
22234;SDS011;11286;45.596;5.284;2022-12-05T15:05:13;13.32;;;10.45;;
22234;SDS011;11286;45.596;5.284;2022-12-05T15:07:47;12.23;;;10.88;;
22234;SDS011;11286;45.596;5.284;2022-12-05T15:10:15;12.68;;;11.40;;
22234;SDS011;11286;45.596;5.284;2022-12-05T15:15:18;18.52;;;11.57;;
22234;SDS011;11286;45.596;5.284;2022-12-05T15:21:21;17.30;;;12.27;;
22234;SDS011;11286;45.596;5.284;2022-12-05T15:23:58;18.95;;;11.85;;
22234;SDS011;11286;45.596;5.284;2022-12-05T15:26:27;11.73;;;10.63;;
22234;SDS011;11286;45.596;5.284;2022-12-05T15:31:31;11.55;;;10.30;;
22234;SDS011;11286;45.596;5.284;2022-12-05T15:40:00;14.18;;;10.40;;
22234;SDS011;11286;45.596;5.284;2022-12-05T15:47:50;27.17;;;11.27;;
22234;SDS011;11286;45.596;5.284;2022-12-05T15:50:37;35.25;;;11.73;;
22234;SDS011;11286;45.596;5.284;2022-12-05T15:53:05;20.70;;;11.38;;
22234;SDS011;11286;45.596;5.284;2022-12-05T16:01:37;36.33;;;10.80;;
22234;SDS011;11286;45.596;5.284;2022-12-05T16:04:05;21.95;;;10.75;;
22234;SDS011;11286;45.596;5.284;2022-12-05T16:06:48;28.95;;;11.90;;
22234;SDS011;11286;45.596;5.284;2022-12-05T16:09:18;16.30;;;10.98;;
22234;SDS011;11286;45.596;5.284;2022-12-05T16:11:55;15.65;;;11.57;;
22234;SDS011;11286;45.596;5.284;2022-12-05T16:14:24;17.15;;;11.98;;
22234;SDS011;11286;45.596;5.284;2022-12-05T16:16:55;19.67;;;12.20;;
22234;SDS011;11286;45.596;5.284;2022-12-05T16:19:24;20.73;;;12.25;;
22234;SDS011;11286;45.596;5.284;2022-12-05T16:22:06;17.10;;;12.00;;
22234;SDS011;11286;45.596;5.284;2022-12-05T16:24:42;26.65;;;13.00;;
22234;SDS011;11286;45.596;5.284;2022-12-05T16:27:17;49.58;;;14.48;;
22234;SDS011;11286;45.596;5.284;2022-12-05T16:30:04;25.77;;;12.45;;
22234;SDS011;11286;45.596;5.284;2022-12-05T16:32:44;62.03;;;27.02;;
22234;SDS011;11286;45.596;5.284;2022-12-05T16:35:32;69.90;;;28.02;;
22234;SDS011;11286;45.596;5.284;2022-12-05T16:38:41;53.47;;;28.52;;
22234;SDS011;11286;45.596;5.284;2022-12-05T16:40:54;66.10;;;28.42;;
22234;SDS011;11286;45.596;5.284;2022-12-05T16:45:58;32.00;;;13.93;;
22234;SDS011;11286;45.596;5.284;2022-12-05T16:49:11;30.17;;;13.75;;
22234;SDS011;11286;45.596;5.284;2022-12-05T16:51:58;33.30;;;15.80;;
22234;SDS011;11286;45.596;5.284;2022-12-05T16:54:33;36.03;;;14.55;;
22234;SDS011;11286;45.596;5.284;2022-12-05T16:56:59;22.33;;;17.08;;
22234;SDS011;11286;45.596;5.284;2022-12-05T16:59:29;19.95;;;16.25;;
22234;SDS011;11286;45.596;5.284;2022-12-05T17:01:58;25.15;;;19.30;;
22234;SDS011;11286;45.596;5.284;2022-12-05T17:04:25;27.65;;;19.80;;
22234;SDS011;11286;45.596;5.284;2022-12-05T17:06:51;24.02;;;18.05;;
22234;SDS011;11286;45.596;5.284;2022-12-05T17:09:17;37.85;;;18.38;;
22234;SDS011;11286;45.596;5.284;2022-12-05T17:11:43;34.30;;;16.65;;
22234;SDS011;11286;45.596;5.284;2022-12-05T17:14:14;25.80;;;16.70;;
22234;SDS011;11286;45.596;5.284;2022-12-05T17:16:41;24.95;;;16.08;;
22234;SDS011;11286;45.596;5.284;2022-12-05T17:19:08;20.13;;;16.10;;
22234;SDS011;11286;45.596;5.284;2022-12-05T17:21:36;20.90;;;15.40;;
22234;SDS011;11286;45.596;5.284;2022-12-05T17:24:03;21.02;;;15.45;;
22234;SDS011;11286;45.596;5.284;2022-12-05T17:26:30;21.02;;;14.38;;
22234;SDS011;11286;45.596;5.284;2022-12-05T17:28:56;18.75;;;14.85;;
22234;SDS011;11286;45.596;5.284;2022-12-05T17:31:22;30.83;;;16.02;;
22234;SDS011;11286;45.596;5.284;2022-12-05T17:33:50;26.20;;;17.20;;
22234;SDS011;11286;45.596;5.284;2022-12-05T17:36:17;30.25;;;19.02;;
22234;SDS011;11286;45.596;5.284;2022-12-05T17:38:45;31.45;;;20.80;;
22234;SDS011;11286;45.596;5.284;2022-12-05T17:41:15;36.15;;;24.05;;
22234;SDS011;11286;45.596;5.284;2022-12-05T17:43:43;29.10;;;22.15;;
22234;SDS011;11286;45.596;5.284;2022-12-05T17:46:10;42.15;;;26.50;;
22234;SDS011;11286;45.596;5.284;2022-12-05T17:48:40;39.80;;;25.63;;
22234;SDS011;11286;45.596;5.284;2022-12-05T17:51:07;37.28;;;23.15;;
22234;SDS011;11286;45.596;5.284;2022-12-05T17:53:35;34.00;;;20.52;;
22234;SDS011;11286;45.596;5.284;2022-12-05T17:56:01;31.83;;;17.63;;